sensor_id;sensor_type;location;lat;lon;timestamp;temperature;humidity
45283;DHT22;31023;44.994;1.796;2022-09-09T00:05:12;17.30;99.90
45283;DHT22;31023;44.994;1.796;2022-09-09T00:07:49;17.20;99.90
45283;DHT22;31023;44.994;1.796;2022-09-09T00:18:21;17.30;99.90
45283;DHT22;31023;44.994;1.796;2022-09-09T00:23:25;17.10;99.90
45283;DHT22;31023;44.994;1.796;2022-09-09T00:25:54;17.20;99.90
45283;DHT22;31023;44.994;1.796;2022-09-09T00:28:24;17.10;99.90
45283;DHT22;31023;44.994;1.796;2022-09-09T00:30:50;17.00;99.90
45283;DHT22;31023;44.994;1.796;2022-09-09T00:33:17;17.00;99.90
45283;DHT22;31023;44.994;1.796;2022-09-09T00:35:44;17.10;99.90
45283;DHT22;31023;44.994;1.796;2022-09-09T00:38:16;17.10;99.90
45283;DHT22;31023;44.994;1.796;2022-09-09T00:40:50;17.00;99.90
45283;DHT22;31023;44.994;1.796;2022-09-09T00:48:17;16.80;99.90
45283;DHT22;31023;44.994;1.796;2022-09-09T00:50:51;16.70;99.90
45283;DHT22;31023;44.994;1.796;2022-09-09T00:58:23;16.50;99.90
45283;DHT22;31023;44.994;1.796;2022-09-09T01:00:55;16.60;99.90
45283;DHT22;31023;44.994;1.796;2022-09-09T01:03:30;16.60;99.90
45283;DHT22;31023;44.994;1.796;2022-09-09T01:06:15;16.40;99.90
45283;DHT22;31023;44.994;1.796;2022-09-09T01:11:22;16.40;99.90
45283;DHT22;31023;44.994;1.796;2022-09-09T01:13:55;16.30;99.90
45283;DHT22;31023;44.994;1.796;2022-09-09T01:16:24;16.10;99.90
45283;DHT22;31023;44.994;1.796;2022-09-09T01:18:51;16.00;99.90
45283;DHT22;31023;44.994;1.796;2022-09-09T01:26:35;16.20;99.90
45283;DHT22;31023;44.994;1.796;2022-09-09T01:29:02;16.20;99.90
45283;DHT22;31023;44.994;1.796;2022-09-09T01:31:29;16.20;99.90
45283;DHT22;31023;44.994;1.796;2022-09-09T01:33:56;16.10;99.90
45283;DHT22;31023;44.994;1.796;2022-09-09T01:39:15;15.90;99.90
45283;DHT22;31023;44.994;1.796;2022-09-09T01:41:41;15.90;99.90
45283;DHT22;31023;44.994;1.796;2022-09-09T01:44:07;15.80;99.90
45283;DHT22;31023;44.994;1.796;2022-09-09T01:46:32;15.70;99.90
45283;DHT22;31023;44.994;1.796;2022-09-09T01:48:58;15.70;99.90
45283;DHT22;31023;44.994;1.796;2022-09-09T01:51:24;15.70;99.90
45283;DHT22;31023;44.994;1.796;2022-09-09T01:53:50;15.70;99.90
45283;DHT22;31023;44.994;1.796;2022-09-09T01:58:52;15.70;99.90
45283;DHT22;31023;44.994;1.796;2022-09-09T02:04:03;15.60;99.90
45283;DHT22;31023;44.994;1.796;2022-09-09T02:06:34;15.50;99.90
45283;DHT22;31023;44.994;1.796;2022-09-09T02:09:00;15.60;99.90
45283;DHT22;31023;44.994;1.796;2022-09-09T02:11:27;15.50;99.90
45283;DHT22;31023;44.994;1.796;2022-09-09T02:13:55;15.50;99.90
45283;DHT22;31023;44.994;1.796;2022-09-09T02:16:27;15.50;99.90
45283;DHT22;31023;44.994;1.796;2022-09-09T02:19:11;15.50;99.90
45283;DHT22;31023;44.994;1.796;2022-09-09T02:21:38;15.80;99.90
45283;DHT22;31023;44.994;1.796;2022-09-09T02:24:05;16.20;99.90
45283;DHT22;31023;44.994;1.796;2022-09-09T02:26:34;16.30;99.90
45283;DHT22;31023;44.994;1.796;2022-09-09T02:29:02;16.30;99.90
45283;DHT22;31023;44.994;1.796;2022-09-09T02:31:28;16.20;99.90
45283;DHT22;31023;44.994;1.796;2022-09-09T02:33:58;16.40;99.90
45283;DHT22;31023;44.994;1.796;2022-09-09T02:36:24;16.40;99.90
45283;DHT22;31023;44.994;1.796;2022-09-09T02:38:50;16.30;99.90
45283;DHT22;31023;44.994;1.796;2022-09-09T02:41:32;16.40;99.90
45283;DHT22;31023;44.994;1.796;2022-09-09T02:43:58;16.40;99.90
45283;DHT22;31023;44.994;1.796;2022-09-09T02:49:00;16.50;99.90
45283;DHT22;31023;44.994;1.796;2022-09-09T02:53:58;16.50;99.90
45283;DHT22;31023;44.994;1.796;2022-09-09T02:56:25;16.30;99.90
45283;DHT22;31023;44.994;1.796;2022-09-09T02:58:53;16.40;99.90
45283;DHT22;31023;44.994;1.796;2022-09-09T03:01:20;16.40;99.90
45283;DHT22;31023;44.994;1.796;2022-09-09T03:03:45;16.50;99.90
45283;DHT22;31023;44.994;1.796;2022-09-09T03:06:11;16.50;99.90
45283;DHT22;31023;44.994;1.796;2022-09-09T03:08:37;16.50;99.90
45283;DHT22;31023;44.994;1.796;2022-09-09T03:11:02;16.40;99.90
45283;DHT22;31023;44.994;1.796;2022-09-09T03:13:28;16.40;99.90
45283;DHT22;31023;44.994;1.796;2022-09-09T03:15:54;16.40;99.90
45283;DHT22;31023;44.994;1.796;2022-09-09T03:18:20;16.30;99.90
45283;DHT22;31023;44.994;1.796;2022-09-09T03:20:46;16.20;99.90
45283;DHT22;31023;44.994;1.796;2022-09-09T03:23:13;16.30;99.90
45283;DHT22;31023;44.994;1.796;2022-09-09T03:25:39;16.30;99.90
45283;DHT22;31023;44.994;1.796;2022-09-09T03:28:04;16.10;99.90
45283;DHT22;31023;44.994;1.796;2022-09-09T03:30:30;16.00;99.90
45283;DHT22;31023;44.994;1.796;2022-09-09T03:32:55;16.00;99.90
45283;DHT22;31023;44.994;1.796;2022-09-09T03:35:21;16.00;99.90
45283;DHT22;31023;44.994;1.796;2022-09-09T03:37:47;16.10;99.90
45283;DHT22;31023;44.994;1.796;2022-09-09T03:40:13;16.20;99.90
45283;DHT22;31023;44.994;1.796;2022-09-09T03:42:38;16.30;99.90
45283;DHT22;31023;44.994;1.796;2022-09-09T03:45:08;16.30;99.90
45283;DHT22;31023;44.994;1.796;2022-09-09T03:47:34;16.30;99.90
45283;DHT22;31023;44.994;1.796;2022-09-09T03:50:00;16.30;99.90
45283;DHT22;31023;44.994;1.796;2022-09-09T03:52:25;16.00;99.90
45283;DHT22;31023;44.994;1.796;2022-09-09T03:54:51;16.00;99.90
45283;DHT22;31023;44.994;1.796;2022-09-09T03:57:18;15.90;99.90
45283;DHT22;31023;44.994;1.796;2022-09-09T03:59:43;15.70;99.90
45283;DHT22;31023;44.994;1.796;2022-09-09T04:02:09;15.60;99.90
45283;DHT22;31023;44.994;1.796;2022-09-09T04:04:35;15.60;99.90
45283;DHT22;31023;44.994;1.796;2022-09-09T04:07:00;15.50;99.90
45283;DHT22;31023;44.994;1.796;2022-09-09T04:09:26;15.40;99.90
45283;DHT22;31023;44.994;1.796;2022-09-09T04:11:51;15.50;99.90
45283;DHT22;31023;44.994;1.796;2022-09-09T04:14:18;15.60;99.90
45283;DHT22;31023;44.994;1.796;2022-09-09T04:16:44;15.70;99.90
45283;DHT22;31023;44.994;1.796;2022-09-09T04:19:10;15.70;99.90
45283;DHT22;31023;44.994;1.796;2022-09-09T04:21:38;15.80;99.90
45283;DHT22;31023;44.994;1.796;2022-09-09T04:24:05;15.90;99.90
45283;DHT22;31023;44.994;1.796;2022-09-09T04:26:30;16.10;99.90
45283;DHT22;31023;44.994;1.796;2022-09-09T04:28:56;16.20;99.90
45283;DHT22;31023;44.994;1.796;2022-09-09T04:31:22;16.20;99.90
45283;DHT22;31023;44.994;1.796;2022-09-09T04:33:49;16.20;99.90
45283;DHT22;31023;44.994;1.796;2022-09-09T04:36:14;16.10;99.90
45283;DHT22;31023;44.994;1.796;2022-09-09T04:38:40;16.20;99.90
45283;DHT22;31023;44.994;1.796;2022-09-09T04:41:06;16.20;99.90
45283;DHT22;31023;44.994;1.796;2022-09-09T04:43:32;16.20;99.90
45283;DHT22;31023;44.994;1.796;2022-09-09T04:45:58;16.10;99.90
45283;DHT22;31023;44.994;1.796;2022-09-09T04:48:26;15.90;99.90
45283;DHT22;31023;44.994;1.796;2022-09-09T04:53:21;15.50;99.90
45283;DHT22;31023;44.994;1.796;2022-09-09T04:55:47;15.50;99.90
45283;DHT22;31023;44.994;1.796;2022-09-09T04:58:14;15.50;99.90
45283;DHT22;31023;44.994;1.796;2022-09-09T05:00:39;15.40;99.90
45283;DHT22;31023;44.994;1.796;2022-09-09T05:03:05;15.40;99.90
45283;DHT22;31023;44.994;1.796;2022-09-09T05:05:31;15.40;99.90
45283;DHT22;31023;44.994;1.796;2022-09-09T05:08:02;15.30;99.90
45283;DHT22;31023;44.994;1.796;2022-09-09T05:10:28;15.30;99.90
45283;DHT22;31023;44.994;1.796;2022-09-09T05:12:54;15.40;99.90
45283;DHT22;31023;44.994;1.796;2022-09-09T05:15:19;15.50;99.90
45283;DHT22;31023;44.994;1.796;2022-09-09T05:17:46;15.60;99.90
45283;DHT22;31023;44.994;1.796;2022-09-09T05:20:11;15.70;99.90
45283;DHT22;31023;44.994;1.796;2022-09-09T05:22:37;15.60;99.90
45283;DHT22;31023;44.994;1.796;2022-09-09T05:25:03;15.60;99.90
45283;DHT22;31023;44.994;1.796;2022-09-09T05:27:28;15.50;99.90
45283;DHT22;31023;44.994;1.796;2022-09-09T05:29:56;15.50;99.90
45283;DHT22;31023;44.994;1.796;2022-09-09T05:32:22;15.40;99.90
45283;DHT22;31023;44.994;1.796;2022-09-09T05:34:48;15.40;99.90
45283;DHT22;31023;44.994;1.796;2022-09-09T05:37:13;15.40;99.90
45283;DHT22;31023;44.994;1.796;2022-09-09T05:39:39;15.30;99.90
45283;DHT22;31023;44.994;1.796;2022-09-09T05:42:04;15.40;99.90
45283;DHT22;31023;44.994;1.796;2022-09-09T05:44:30;15.40;99.90
45283;DHT22;31023;44.994;1.796;2022-09-09T05:46:56;15.50;99.90
45283;DHT22;31023;44.994;1.796;2022-09-09T05:49:23;15.50;99.90
45283;DHT22;31023;44.994;1.796;2022-09-09T05:51:48;15.50;99.90
45283;DHT22;31023;44.994;1.796;2022-09-09T05:54:15;15.70;99.90
45283;DHT22;31023;44.994;1.796;2022-09-09T05:56:41;15.90;99.90
45283;DHT22;31023;44.994;1.796;2022-09-09T05:59:07;15.80;99.90
45283;DHT22;31023;44.994;1.796;2022-09-09T06:01:33;16.00;99.90
45283;DHT22;31023;44.994;1.796;2022-09-09T06:03:59;16.20;99.90
45283;DHT22;31023;44.994;1.796;2022-09-09T06:06:25;16.10;99.90
45283;DHT22;31023;44.994;1.796;2022-09-09T06:08:52;16.00;99.90
45283;DHT22;31023;44.994;1.796;2022-09-09T06:11:22;16.00;99.90
45283;DHT22;31023;44.994;1.796;2022-09-09T06:13:48;16.00;99.90
45283;DHT22;31023;44.994;1.796;2022-09-09T06:16:17;15.90;99.90
45283;DHT22;31023;44.994;1.796;2022-09-09T06:18:43;15.80;99.90
45283;DHT22;31023;44.994;1.796;2022-09-09T06:21:11;15.90;99.90
45283;DHT22;31023;44.994;1.796;2022-09-09T06:23:36;17.50;99.90
45283;DHT22;31023;44.994;1.796;2022-09-09T06:28:34;19.30;99.90
45283;DHT22;31023;44.994;1.796;2022-09-09T06:31:01;20.60;99.90
45283;DHT22;31023;44.994;1.796;2022-09-09T06:33:26;20.50;99.90
45283;DHT22;31023;44.994;1.796;2022-09-09T06:35:55;20.80;99.90
45283;DHT22;31023;44.994;1.796;2022-09-09T06:38:22;20.40;99.90
45283;DHT22;31023;44.994;1.796;2022-09-09T06:40:54;20.20;99.90
45283;DHT22;31023;44.994;1.796;2022-09-09T06:43:21;21.00;99.90
45283;DHT22;31023;44.994;1.796;2022-09-09T06:46:00;21.30;99.90
45283;DHT22;31023;44.994;1.796;2022-09-09T06:48:26;21.80;99.90
45283;DHT22;31023;44.994;1.796;2022-09-09T06:51:05;21.20;99.90
45283;DHT22;31023;44.994;1.796;2022-09-09T06:53:31;20.60;99.90
45283;DHT22;31023;44.994;1.796;2022-09-09T06:55:59;20.20;99.90
45283;DHT22;31023;44.994;1.796;2022-09-09T06:58:26;20.20;99.90
45283;DHT22;31023;44.994;1.796;2022-09-09T07:00:51;19.90;99.90
45283;DHT22;31023;44.994;1.796;2022-09-09T07:03:18;19.70;99.90
45283;DHT22;31023;44.994;1.796;2022-09-09T07:05:43;19.40;99.90
45283;DHT22;31023;44.994;1.796;2022-09-09T07:08:18;19.30;99.90
45283;DHT22;31023;44.994;1.796;2022-09-09T07:10:44;21.20;99.90
45283;DHT22;31023;44.994;1.796;2022-09-09T07:13:09;21.30;99.90
45283;DHT22;31023;44.994;1.796;2022-09-09T07:15:35;20.60;99.90
45283;DHT22;31023;44.994;1.796;2022-09-09T07:18:01;21.70;99.90
45283;DHT22;31023;44.994;1.796;2022-09-09T07:20:27;20.60;99.90
45283;DHT22;31023;44.994;1.796;2022-09-09T07:22:54;21.00;99.90
45283;DHT22;31023;44.994;1.796;2022-09-09T07:25:20;22.20;99.90
45283;DHT22;31023;44.994;1.796;2022-09-09T07:27:46;20.90;99.90
45283;DHT22;31023;44.994;1.796;2022-09-09T07:30:11;19.90;99.90
45283;DHT22;31023;44.994;1.796;2022-09-09T07:32:37;19.70;99.90
45283;DHT22;31023;44.994;1.796;2022-09-09T07:35:02;19.40;99.90
45283;DHT22;31023;44.994;1.796;2022-09-09T07:37:28;19.10;99.90
45283;DHT22;31023;44.994;1.796;2022-09-09T07:39:53;18.90;99.90
45283;DHT22;31023;44.994;1.796;2022-09-09T07:42:19;18.80;99.90
45283;DHT22;31023;44.994;1.796;2022-09-09T07:44:45;18.80;99.90
45283;DHT22;31023;44.994;1.796;2022-09-09T07:47:10;19.10;99.90
45283;DHT22;31023;44.994;1.796;2022-09-09T07:49:36;19.60;99.90
45283;DHT22;31023;44.994;1.796;2022-09-09T07:52:02;20.70;99.90
45283;DHT22;31023;44.994;1.796;2022-09-09T07:54:28;21.70;99.90
45283;DHT22;31023;44.994;1.796;2022-09-09T07:56:54;21.60;99.90
45283;DHT22;31023;44.994;1.796;2022-09-09T07:59:19;21.90;99.90
45283;DHT22;31023;44.994;1.796;2022-09-09T08:01:46;22.20;99.90
45283;DHT22;31023;44.994;1.796;2022-09-09T08:04:13;23.20;99.90
45283;DHT22;31023;44.994;1.796;2022-09-09T08:06:41;22.20;99.90
45283;DHT22;31023;44.994;1.796;2022-09-09T08:09:08;22.30;99.90
45283;DHT22;31023;44.994;1.796;2022-09-09T08:11:33;25.00;99.90
45283;DHT22;31023;44.994;1.796;2022-09-09T08:14:01;26.10;99.90
45283;DHT22;31023;44.994;1.796;2022-09-09T08:16:31;26.70;99.30
45283;DHT22;31023;44.994;1.796;2022-09-09T08:18:58;27.70;98.40
45283;DHT22;31023;44.994;1.796;2022-09-09T08:21:25;27.20;98.70
45283;DHT22;31023;44.994;1.796;2022-09-09T08:23:52;27.20;98.50
45283;DHT22;31023;44.994;1.796;2022-09-09T08:26:19;26.80;97.70
45283;DHT22;31023;44.994;1.796;2022-09-09T08:28:48;27.40;97.60
45283;DHT22;31023;44.994;1.796;2022-09-09T08:31:16;27.60;96.90
45283;DHT22;31023;44.994;1.796;2022-09-09T08:33:42;29.40;94.30
45283;DHT22;31023;44.994;1.796;2022-09-09T08:36:10;27.10;95.90
45283;DHT22;31023;44.994;1.796;2022-09-09T08:38:35;25.80;96.60
45283;DHT22;31023;44.994;1.796;2022-09-09T08:43:48;25.00;99.60
45283;DHT22;31023;44.994;1.796;2022-09-09T08:46:19;25.90;98.30
45283;DHT22;31023;44.994;1.796;2022-09-09T08:49:06;27.20;96.60
45283;DHT22;31023;44.994;1.796;2022-09-09T08:51:35;27.80;94.40
45283;DHT22;31023;44.994;1.796;2022-09-09T08:54:02;27.90;92.70
45283;DHT22;31023;44.994;1.796;2022-09-09T08:56:28;29.30;93.10
45283;DHT22;31023;44.994;1.796;2022-09-09T08:58:56;28.40;90.00
45283;DHT22;31023;44.994;1.796;2022-09-09T09:02:08;28.90;91.20
45283;DHT22;31023;44.994;1.796;2022-09-09T09:09:24;29.10;90.40
45283;DHT22;31023;44.994;1.796;2022-09-09T09:11:54;29.40;90.30
45283;DHT22;31023;44.994;1.796;2022-09-09T09:14:23;27.00;91.70
45283;DHT22;31023;44.994;1.796;2022-09-09T09:16:59;27.90;90.10
45283;DHT22;31023;44.994;1.796;2022-09-09T09:19:26;25.70;92.00
45283;DHT22;31023;44.994;1.796;2022-09-09T09:22:00;27.70;92.70
45283;DHT22;31023;44.994;1.796;2022-09-09T09:26:58;28.70;83.70
45283;DHT22;31023;44.994;1.796;2022-09-09T09:29:26;25.60;87.50
45283;DHT22;31023;44.994;1.796;2022-09-09T09:31:52;25.40;90.80
45283;DHT22;31023;44.994;1.796;2022-09-09T09:34:20;25.00;91.80
45283;DHT22;31023;44.994;1.796;2022-09-09T09:36:52;25.60;92.10
45283;DHT22;31023;44.994;1.796;2022-09-09T09:41:49;31.10;78.60
45283;DHT22;31023;44.994;1.796;2022-09-09T09:44:29;29.00;78.60
45283;DHT22;31023;44.994;1.796;2022-09-09T09:47:05;26.50;87.00
45283;DHT22;31023;44.994;1.796;2022-09-09T09:49:31;25.30;87.40
45283;DHT22;31023;44.994;1.796;2022-09-09T09:52:04;24.20;88.40
45283;DHT22;31023;44.994;1.796;2022-09-09T09:54:31;23.50;90.70
45283;DHT22;31023;44.994;1.796;2022-09-09T09:57:10;23.40;90.90
45283;DHT22;31023;44.994;1.796;2022-09-09T09:59:37;25.10;90.20
45283;DHT22;31023;44.994;1.796;2022-09-09T10:02:18;24.90;87.50
45283;DHT22;31023;44.994;1.796;2022-09-09T10:04:44;23.40;91.90
45283;DHT22;31023;44.994;1.796;2022-09-09T10:07:17;22.90;93.80
45283;DHT22;31023;44.994;1.796;2022-09-09T10:09:42;22.60;95.10
45283;DHT22;31023;44.994;1.796;2022-09-09T10:19:45;22.10;96.70
45283;DHT22;31023;44.994;1.796;2022-09-09T10:30:56;23.50;96.80
45283;DHT22;31023;44.994;1.796;2022-09-09T10:35:27;23.80;96.20
45283;DHT22;31023;44.994;1.796;2022-09-09T10:40:39;23.80;93.10
45283;DHT22;31023;44.994;1.796;2022-09-09T10:45:39;22.20;95.50
45283;DHT22;31023;44.994;1.796;2022-09-09T10:56:03;21.90;96.30
45283;DHT22;31023;44.994;1.796;2022-09-09T10:58:31;21.90;96.50
45283;DHT22;31023;44.994;1.796;2022-09-09T11:01:01;22.00;96.50
45283;DHT22;31023;44.994;1.796;2022-09-09T11:03:33;22.20;94.70
45283;DHT22;31023;44.994;1.796;2022-09-09T11:06:04;22.40;94.10
45283;DHT22;31023;44.994;1.796;2022-09-09T11:08:31;23.00;93.00
45283;DHT22;31023;44.994;1.796;2022-09-09T11:13:30;23.10;91.60
45283;DHT22;31023;44.994;1.796;2022-09-09T11:15:59;23.50;91.10
45283;DHT22;31023;44.994;1.796;2022-09-09T11:18:26;22.80;89.80
45283;DHT22;31023;44.994;1.796;2022-09-09T11:20:56;23.10;91.60
45283;DHT22;31023;44.994;1.796;2022-09-09T11:23:27;23.10;90.30
45283;DHT22;31023;44.994;1.796;2022-09-09T11:25:58;23.40;90.40
45283;DHT22;31023;44.994;1.796;2022-09-09T11:36:12;23.10;90.40
45283;DHT22;31023;44.994;1.796;2022-09-09T11:41:05;23.50;89.70
45283;DHT22;31023;44.994;1.796;2022-09-09T11:43:42;23.70;86.70
45283;DHT22;31023;44.994;1.796;2022-09-09T11:46:08;23.60;85.70
45283;DHT22;31023;44.994;1.796;2022-09-09T11:48:36;23.40;88.30
45283;DHT22;31023;44.994;1.796;2022-09-09T11:51:07;23.50;87.60
45283;DHT22;31023;44.994;1.796;2022-09-09T11:53:33;23.60;86.40
45283;DHT22;31023;44.994;1.796;2022-09-09T11:56:09;24.00;86.00
45283;DHT22;31023;44.994;1.796;2022-09-09T11:58:53;23.90;86.20
45283;DHT22;31023;44.994;1.796;2022-09-09T12:06:28;24.50;86.90
45283;DHT22;31023;44.994;1.796;2022-09-09T12:09:19;24.60;86.40
45283;DHT22;31023;44.994;1.796;2022-09-09T12:11:42;24.80;87.40
45283;DHT22;31023;44.994;1.796;2022-09-09T12:14:18;25.00;88.80
45283;DHT22;31023;44.994;1.796;2022-09-09T12:16:44;24.70;86.30
45283;DHT22;31023;44.994;1.796;2022-09-09T12:21:53;24.50;86.50
45283;DHT22;31023;44.994;1.796;2022-09-09T12:24:27;24.70;86.90
45283;DHT22;31023;44.994;1.796;2022-09-09T12:27:02;24.70;85.50
45283;DHT22;31023;44.994;1.796;2022-09-09T12:32:06;24.90;84.10
45283;DHT22;31023;44.994;1.796;2022-09-09T12:40:21;24.40;85.90
45283;DHT22;31023;44.994;1.796;2022-09-09T12:42:47;24.20;86.60
45283;DHT22;31023;44.994;1.796;2022-09-09T12:45:16;24.00;89.30
45283;DHT22;31023;44.994;1.796;2022-09-09T12:47:47;24.30;89.70
45283;DHT22;31023;44.994;1.796;2022-09-09T12:50:19;23.70;85.60
45283;DHT22;31023;44.994;1.796;2022-09-09T12:52:46;23.90;88.70
45283;DHT22;31023;44.994;1.796;2022-09-09T12:55:16;23.80;89.50
45283;DHT22;31023;44.994;1.796;2022-09-09T12:57:42;23.80;88.90
45283;DHT22;31023;44.994;1.796;2022-09-09T13:00:15;24.00;86.30
45283;DHT22;31023;44.994;1.796;2022-09-09T13:05:14;23.80;87.40
45283;DHT22;31023;44.994;1.796;2022-09-09T13:07:40;23.60;87.30
45283;DHT22;31023;44.994;1.796;2022-09-09T13:10:09;23.60;87.60
45283;DHT22;31023;44.994;1.796;2022-09-09T13:12:35;23.30;88.60
45283;DHT22;31023;44.994;1.796;2022-09-09T13:15:01;23.20;89.70
45283;DHT22;31023;44.994;1.796;2022-09-09T13:17:27;22.90;88.40
45283;DHT22;31023;44.994;1.796;2022-09-09T13:19:56;23.10;89.30
45283;DHT22;31023;44.994;1.796;2022-09-09T13:22:31;22.80;90.60
45283;DHT22;31023;44.994;1.796;2022-09-09T13:25:00;23.00;90.50
45283;DHT22;31023;44.994;1.796;2022-09-09T13:29:56;23.20;91.50
45283;DHT22;31023;44.994;1.796;2022-09-09T13:32:22;23.20;92.10
45283;DHT22;31023;44.994;1.796;2022-09-09T13:34:55;22.90;92.10
45283;DHT22;31023;44.994;1.796;2022-09-09T13:37:42;22.90;92.20
45283;DHT22;31023;44.994;1.796;2022-09-09T13:40:14;22.80;91.40
45283;DHT22;31023;44.994;1.796;2022-09-09T13:42:42;22.70;92.20
45283;DHT22;31023;44.994;1.796;2022-09-09T13:45:18;22.80;91.90
45283;DHT22;31023;44.994;1.796;2022-09-09T13:47:45;22.70;91.30
45283;DHT22;31023;44.994;1.796;2022-09-09T13:50:25;23.00;91.90
45283;DHT22;31023;44.994;1.796;2022-09-09T13:52:54;22.90;91.60
45283;DHT22;31023;44.994;1.796;2022-09-09T13:55:24;22.50;90.40
45283;DHT22;31023;44.994;1.796;2022-09-09T13:57:50;22.50;91.30
45283;DHT22;31023;44.994;1.796;2022-09-09T14:00:17;22.30;90.30
45283;DHT22;31023;44.994;1.796;2022-09-09T14:02:42;22.20;88.50
45283;DHT22;31023;44.994;1.796;2022-09-09T14:05:09;22.50;90.20
45283;DHT22;31023;44.994;1.796;2022-09-09T14:07:36;22.70;90.10
45283;DHT22;31023;44.994;1.796;2022-09-09T14:10:04;22.60;89.30
45283;DHT22;31023;44.994;1.796;2022-09-09T14:12:29;22.90;88.90
45283;DHT22;31023;44.994;1.796;2022-09-09T14:14:55;23.10;88.00
45283;DHT22;31023;44.994;1.796;2022-09-09T14:17:20;23.10;87.10
45283;DHT22;31023;44.994;1.796;2022-09-09T14:19:47;22.70;87.00
45283;DHT22;31023;44.994;1.796;2022-09-09T14:22:13;22.70;88.90
45283;DHT22;31023;44.994;1.796;2022-09-09T14:24:39;22.60;88.90
45283;DHT22;31023;44.994;1.796;2022-09-09T14:27:04;22.20;89.40
45283;DHT22;31023;44.994;1.796;2022-09-09T14:29:30;22.50;89.40
45283;DHT22;31023;44.994;1.796;2022-09-09T14:31:55;22.70;89.00
45283;DHT22;31023;44.994;1.796;2022-09-09T14:34:21;23.00;89.00
45283;DHT22;31023;44.994;1.796;2022-09-09T14:36:46;23.20;88.40
45283;DHT22;31023;44.994;1.796;2022-09-09T14:39:12;23.20;88.10
45283;DHT22;31023;44.994;1.796;2022-09-09T14:41:38;23.00;87.10
45283;DHT22;31023;44.994;1.796;2022-09-09T14:44:03;22.80;87.80
45283;DHT22;31023;44.994;1.796;2022-09-09T14:46:29;22.60;89.20
45283;DHT22;31023;44.994;1.796;2022-09-09T14:48:54;23.00;90.20
45283;DHT22;31023;44.994;1.796;2022-09-09T14:51:21;23.20;89.40
45283;DHT22;31023;44.994;1.796;2022-09-09T14:53:53;23.10;88.60
45283;DHT22;31023;44.994;1.796;2022-09-09T14:56:19;22.70;87.90
45283;DHT22;31023;44.994;1.796;2022-09-09T14:58:46;22.50;88.90
45283;DHT22;31023;44.994;1.796;2022-09-09T15:01:12;22.40;89.70
45283;DHT22;31023;44.994;1.796;2022-09-09T15:03:39;22.40;90.60
45283;DHT22;31023;44.994;1.796;2022-09-09T15:06:11;22.60;89.80
45283;DHT22;31023;44.994;1.796;2022-09-09T15:08:38;22.80;88.80
45283;DHT22;31023;44.994;1.796;2022-09-09T15:11:05;22.40;88.40
45283;DHT22;31023;44.994;1.796;2022-09-09T15:13:32;22.30;90.40
45283;DHT22;31023;44.994;1.796;2022-09-09T15:16:08;22.30;90.80
45283;DHT22;31023;44.994;1.796;2022-09-09T15:18:34;22.30;90.80
45283;DHT22;31023;44.994;1.796;2022-09-09T15:21:01;22.50;89.70
45283;DHT22;31023;44.994;1.796;2022-09-09T15:23:28;22.50;88.30
45283;DHT22;31023;44.994;1.796;2022-09-09T15:25:54;22.30;82.30
45283;DHT22;31023;44.994;1.796;2022-09-09T15:28:20;22.20;82.20
45283;DHT22;31023;44.994;1.796;2022-09-09T15:30:50;22.10;83.10
45283;DHT22;31023;44.994;1.796;2022-09-09T15:33:16;22.00;83.10
45283;DHT22;31023;44.994;1.796;2022-09-09T15:35:42;21.90;81.90
45283;DHT22;31023;44.994;1.796;2022-09-09T15:38:08;21.90;83.20
45283;DHT22;31023;44.994;1.796;2022-09-09T15:40:33;21.80;83.60
45283;DHT22;31023;44.994;1.796;2022-09-09T15:42:59;21.70;82.60
45283;DHT22;31023;44.994;1.796;2022-09-09T15:45:24;21.90;84.20
45283;DHT22;31023;44.994;1.796;2022-09-09T15:47:50;21.60;83.50
45283;DHT22;31023;44.994;1.796;2022-09-09T15:50:15;21.50;83.60
45283;DHT22;31023;44.994;1.796;2022-09-09T15:52:41;21.50;84.20
45283;DHT22;31023;44.994;1.796;2022-09-09T15:55:06;21.90;83.50
45283;DHT22;31023;44.994;1.796;2022-09-09T15:57:33;22.00;84.40
45283;DHT22;31023;44.994;1.796;2022-09-09T16:00:00;22.00;84.20
45283;DHT22;31023;44.994;1.796;2022-09-09T16:02:25;22.10;83.50
45283;DHT22;31023;44.994;1.796;2022-09-09T16:04:51;22.20;83.60
45283;DHT22;31023;44.994;1.796;2022-09-09T16:07:16;22.20;84.40
45283;DHT22;31023;44.994;1.796;2022-09-09T16:09:42;22.20;83.00
45283;DHT22;31023;44.994;1.796;2022-09-09T16:12:08;22.30;83.90
45283;DHT22;31023;44.994;1.796;2022-09-09T16:14:38;22.20;83.10
45283;DHT22;31023;44.994;1.796;2022-09-09T16:17:04;22.30;83.30
45283;DHT22;31023;44.994;1.796;2022-09-09T16:19:31;22.30;82.80
45283;DHT22;31023;44.994;1.796;2022-09-09T16:21:56;22.50;84.10
45283;DHT22;31023;44.994;1.796;2022-09-09T16:24:22;22.30;84.60
45283;DHT22;31023;44.994;1.796;2022-09-09T16:26:50;22.20;84.00
45283;DHT22;31023;44.994;1.796;2022-09-09T16:29:16;22.10;84.00
45283;DHT22;31023;44.994;1.796;2022-09-09T16:31:42;22.20;84.30
45283;DHT22;31023;44.994;1.796;2022-09-09T16:34:08;22.20;84.20
45283;DHT22;31023;44.994;1.796;2022-09-09T16:36:35;21.70;82.80
45283;DHT22;31023;44.994;1.796;2022-09-09T16:39:03;21.50;82.90
45283;DHT22;31023;44.994;1.796;2022-09-09T16:41:29;21.40;85.00
45283;DHT22;31023;44.994;1.796;2022-09-09T16:43:59;21.40;84.40
45283;DHT22;31023;44.994;1.796;2022-09-09T16:46:26;21.50;85.00
45283;DHT22;31023;44.994;1.796;2022-09-09T16:48:53;21.40;84.80
45283;DHT22;31023;44.994;1.796;2022-09-09T16:51:21;21.30;85.40
45283;DHT22;31023;44.994;1.796;2022-09-09T16:53:48;21.20;86.30
45283;DHT22;31023;44.994;1.796;2022-09-09T16:56:15;21.10;86.50
45283;DHT22;31023;44.994;1.796;2022-09-09T16:58:41;21.20;86.60
45283;DHT22;31023;44.994;1.796;2022-09-09T17:01:10;21.10;87.20
45283;DHT22;31023;44.994;1.796;2022-09-09T17:03:39;21.20;87.70
45283;DHT22;31023;44.994;1.796;2022-09-09T17:06:08;21.20;88.20
45283;DHT22;31023;44.994;1.796;2022-09-09T17:08:33;21.30;88.40
45283;DHT22;31023;44.994;1.796;2022-09-09T17:10:59;21.20;88.20
45283;DHT22;31023;44.994;1.796;2022-09-09T17:13:24;21.20;88.70
45283;DHT22;31023;44.994;1.796;2022-09-09T17:15:50;21.20;88.90
45283;DHT22;31023;44.994;1.796;2022-09-09T17:18:16;21.20;89.90
45283;DHT22;31023;44.994;1.796;2022-09-09T17:20:42;21.20;90.00
45283;DHT22;31023;44.994;1.796;2022-09-09T17:23:09;21.20;89.70
45283;DHT22;31023;44.994;1.796;2022-09-09T17:25:35;21.10;90.10
45283;DHT22;31023;44.994;1.796;2022-09-09T17:28:01;21.10;89.00
45283;DHT22;31023;44.994;1.796;2022-09-09T17:30:37;21.10;88.60
45283;DHT22;31023;44.994;1.796;2022-09-09T17:33:03;21.00;89.70
45283;DHT22;31023;44.994;1.796;2022-09-09T17:35:30;21.00;90.00
45283;DHT22;31023;44.994;1.796;2022-09-09T17:37:55;21.00;90.30
45283;DHT22;31023;44.994;1.796;2022-09-09T17:40:21;21.00;90.40
45283;DHT22;31023;44.994;1.796;2022-09-09T17:42:47;20.90;90.30